Airfield :
LOGIN :

Register | Disclaimer

   EN    FR    IT 

 










Legend :    VFR   Marginal VFR   IFR   Intensive IFR   Very Intensive IFR
Visi :
Ceiling :
>= 8 km
>= 3000ft
5 to 8 km
1000 to 3000 ft
1500m to 5 km
500 to 1000 ft
800 to 1500m
200 to 500 ft
< 800m
< 200 ft
Symbols :   Thunderstorms  Fog  Heavy snow  Heavy precipitations  Wind > 20 kt
SIGMETs :     Misc.  Thunderstorms  Icing  Turbulence  Mountain Waves  Volcanic Ashes







- Airport Elevation : 13 ft
- IATA code : SNR
- Download approach charts


LFRZ - St-Nazaire

CURRENT METAR :
  • 152230Z AUTO 31004KT 270V350 9999 SCT024 BKN030 BKN038 14/13 Q1012 TEMPO BKN006

EXPIRED METARs :
  • 152200Z AUTO VRB02KT 9999 BKN023 BKN029 OVC037 14/13 Q1012 TEMPO BKN012
  • 152130Z AUTO 29005KT 9999 SCT024 BKN034 OVC068 14/13 Q1012 TEMPO BKN012
  • 152100Z AUTO 33006KT 300V360 9999 BKN023 OVC040 14/13 Q1012 TEMPO BKN012
  • 152030Z AUTO 31003KT 280V340 9999 BKN038 BKN052 OVC080 14/13 Q1012 TEMPO BKN012
  • 152000Z AUTO 29005KT 9999 FEW023 BKN050 OVC082 14/13 Q1011 TEMPO BKN012

TAF TAF LFRZ
Valid from the 15 at 18:00 until the 16 at 18:00 UTC


151700Z 1518/1618 VRB04KT 9999 BKN030
TEMPO 1521/1609 BKN012
PROB30
TEMPO 1600/1607 BKN006
No reported NOTAMs for that airfield.



MET'MAP, your aeronautical weather chart ! - Copyright ORBIFLY December 2007 - Disclaimer

ORBIFLY MET'MAP TEAM :

Programming & Development : Alexandra Zaïnal
Concept & Development : Baudouin d'Aumeries
Co-Development & Prog : Marc-Olivier Méhu
Technical & hardware support : Manuel Goepfert

Contact : metmap@orbifly.com




SOURCES & CREDITS :

   NOAA